Gananoque, Canada
Current Conditions -  °F | °C
As of 4:16 PM on Wednesday 17 Dec 2014 (Local Time) from CYGK Reporting Station
Drizzle Drizzle  
Wind Chill: 28°   Ceiling: 800
Heat Index: 37°   Visibility: 12mi
Dew Point: 36°   Wind: 16mph
Humidity: 93%   Direction: 250°WSW
Pressure: 29.81"   Gusts: NA
Location:  44.33°N, 76.16°W
Report Text: CYGK 172116Z 25014KT 12SM -DZ OVC008 03/02 A2981 RMK SF8 SLP098
Loading
Personal Weather Stations






























Interactive Weather Map New forecast layout! Learn more

10-Day Weather Forecast

Advertisements
Track Severe Weather on mobile